Colorado Springs, CO (80941)

3:12 AM MDT on April 19, 2015 (GMT -0600)
Palmer Park | | Change Station
CLOSE
Current Station
Personal Weather Station
Location: Colorado Springs, CO
Elevation: 6381 ft
Nearby Weather Stations

Elev 6381 ft 38.87 °N, 104.77 °W | Updated 4 minutes ago

Overcast
Overcast
35.4 °F
Feels Like 26 °F
N
14.5
Wind Variable Wind from NNE

Today
High -- | Low -- °F
--% Chance of Precip.
Yesterday
High -- | Low -- °F
Precip. -- in
6:17 AM 7:39 PM
New Moon, 1% visible
Pressure 29.96 in
Visibility 10.0 miles
Clouds Mostly Cloudy 2000 ft
Overcast 3400 ft
Windchill 26 °F
Dew Point 34 °F
Humidity 94%
Rainfall 0.00 in
Snow Depth Not available.
UV 0 out of 12
Pollen 8.00 out of 12
Air Quality Not available.
Flu Activity Local Activity
METAR KCOS 190854Z 33016G26KT 10SM -RA BKN020 OVC034 04/01 A2999 RMK AO2 PK WND 32037/0801 RAE12B52 SLP145 P0000 60000 T00440006 51007

More Conditions Fewer Conditions

Pressure 29.96 in
Visibility 10.0 miles
Clouds Mostly Cloudy 2000 ft
Overcast 3400 ft
Windchill 26 °F
Dew Point 34 °F
Humidity 94%
Rainfall 0.00 in
Snow Depth Not available.
UV 0 out of 12
Pollen 8.00 out of 12
Air Quality Not available.
Flu Activity Local Activity
METAR KCOS 190854Z 33016G26KT 10SM -RA BKN020 OVC034 04/01 A2999 RMK AO2 PK WND 32037/0801 RAE12B52 SLP145 P0000 60000 T00440006 51007

More Conditions Fewer Conditions

10-Day Weather Forecast

Almanac

Astronomy

Apr. 19, 2015 Rise Set
Actual Time
Civil Twilight
Nautical Twilight
Astronomical Twilight
Moon
Length of Visible Light
Length of Day
Tomorrow will be .
, % of the Moon is Illuminated

Today's Extremes

State Highs State Lows

Community

WunderPhotos

Upload Photos

1,814,748 photos uploaded!

WunderBlogs® & News

Nearby

Air Quality

  Air Quality AQ Index Pollutant
Not available.

Snow Depth

Station Depth Elevation

Earthquake Activity

City Distance Mag. Time & Date
Minimum magnitude displayed is 2.5.

Coastal Water Temperatures

Place Temperature

Stations

Nearby Weather Stations

Station Location Temp. Windchill Dew Point Humidity Wind Precip. Elev Updated Type